Time;durP1;ratioP1;P1;durP2;ratioP2;P2;SDS_P1;SDS_P2;PMS_P1;PMS_P2;Temp;Humidity;BMP_temperature;BMP_pressure;BME280_temperature;BME280_humidity;BME280_pressure;Samples;Min_cycle;Max_cycle;Signal;HPM_P1;HPM_P2
2021/11/02 00:07:10;;;;;;;2.60;1.00;;;;;;;;;;21092673;28;20056;-64
2021/11/02 00:17:17;;;;;;;3.13;1.10;;;;;;;;;;21092507;28;20514;-62
2021/11/02 00:27:20;;;;;;;2.88;1.02;;;;;;;;;;21091746;28;20044;-64
2021/11/02 00:37:22;;;;;;;3.70;0.98;;;;;;;;;;21090385;28;20085;-63
2021/11/02 00:47:26;;;;;;;5.57;1.00;;;;;;;;;;21089814;28;20138;-60
2021/11/02 00:57:28;;;;;;;3.03;1.30;;;;;;;;;;21088752;28;20059;-61
2021/11/02 01:07:30;;;;;;;5.00;1.38;;;;;;;;;;21087584;28;20138;-63
2021/11/02 01:17:32;;;;;;;2.45;1.10;;;;;;;;;;21088691;28;20052;-62
2021/11/02 01:27:35;;;;;;;1.95;0.90;;;;;;;;;;21087483;28;20071;-62
2021/11/02 01:37:39;;;;;;;4.32;1.05;;;;;;;;;;21085065;28;20052;-63
2021/11/02 01:47:43;;;;;;;3.67;0.97;;;;;;;;;;21087946;28;20089;-62
2021/11/02 01:57:46;;;;;;;2.07;1.07;;;;;;;;;;21107407;28;20074;-61
2021/11/02 02:07:52;;;;;;;2.38;0.90;;;;;;;;;;21090792;28;20093;-64
2021/11/02 02:17:53;;;;;;;;;;;;;;;;;;21082059;28;20500;-63
2021/11/02 02:28:07;;;;;;;3.00;0.85;;;;;;;;;;21082278;28;19924;-63
2021/11/02 02:38:10;;;;;;;4.53;1.27;;;;;;;;;;21080812;28;20412;-61
2021/11/02 02:48:14;;;;;;;3.03;1.20;;;;;;;;;;21080675;28;20079;-63
2021/11/02 02:58:18;;;;;;;3.00;1.00;;;;;;;;;;21080715;28;20138;-65
2021/11/02 03:08:21;;;;;;;9.25;1.85;;;;;;;;;;21078920;28;20048;-64
2021/11/02 06:04:46;;;;;;;4.43;1.42;;;;;;;;;;21083208;28;20048;-63
2021/11/02 06:35:28;;;;;;;5.43;1.48;;;;;;;;;;21076525;28;20105;-63
2021/11/02 06:56:07;;;;;;;6.25;2.60;;;;;;;;;;21079881;28;20056;-63
2021/11/02 08:50:03;;;;;;;5.55;1.60;;;;;;;;;;21091570;28;20101;-59
2021/11/02 09:00:07;;;;;;;6.65;2.13;;;;;;;;;;21091121;28;20060;-60
2021/11/02 09:10:18;;;;;;;5.28;1.90;;;;;;;;;;21089563;28;20052;-57
2021/11/02 09:20:22;;;;;;;5.60;1.48;;;;;;;;;;21086932;28;20507;-58
2021/11/02 09:30:24;;;;;;;6.55;2.42;;;;;;;;;;21085672;28;20382;-56
2021/11/02 09:40:26;;;;;;;3.60;1.15;;;;;;;;;;21084983;28;20131;-57
2021/11/02 09:50:48;;;;;;;8.80;1.60;;;;;;;;;;21085655;28;20117;-58
2021/11/02 10:01:04;;;;;;;5.93;2.85;;;;;;;;;;21084197;28;20064;-60
2021/11/02 10:11:27;;;;;;;6.57;1.58;;;;;;;;;;21083553;28;20102;-60
2021/11/02 10:21:42;;;;;;;5.35;1.50;;;;;;;;;;21082404;28;20043;-59
2021/11/02 10:32:06;;;;;;;9.98;2.85;;;;;;;;;;21081374;28;20098;-60
2021/11/02 10:42:23;;;;;;;6.10;1.60;;;;;;;;;;21081364;28;20200;-62
2021/11/02 10:52:31;;;;;;;10.88;2.47;;;;;;;;;;21047869;28;20067;-60
2021/11/02 11:02:33;;;;;;;4.50;2.10;;;;;;;;;;21059470;28;20435;-62
2021/11/02 11:12:55;;;;;;;3.08;1.20;;;;;;;;;;21000253;28;20051;-61
2021/11/02 11:22:58;;;;;;;3.90;1.17;;;;;;;;;;20995022;28;20057;-64
2021/11/02 11:33:07;;;;;;;3.38;1.25;;;;;;;;;;21028327;28;20481;-62
2021/11/02 11:43:10;;;;;;;4.60;1.23;;;;;;;;;;21007144;28;20127;-59
2021/11/02 11:53:16;;;;;;;4.80;2.13;;;;;;;;;;20996357;28;20523;-60
2021/11/02 12:03:24;;;;;;;9.18;1.35;;;;;;;;;;21009730;28;20167;-61
2021/11/02 12:13:28;;;;;;;4.50;1.10;;;;;;;;;;21008071;28;20053;-58
2021/11/02 12:23:30;;;;;;;;;;;;;;;;;;21008382;28;20060;-60
2021/11/02 12:33:33;;;;;;;2.78;1.08;;;;;;;;;;21007007;28;19966;-58
2021/11/02 12:43:35;;;;;;;4.50;1.48;;;;;;;;;;21020793;28;20132;-60
2021/11/02 12:53:40;;;;;;;2.93;1.00;;;;;;;;;;21005278;28;20524;-59
2021/11/02 13:03:44;;;;;;;6.43;2.42;;;;;;;;;;21002886;28;20048;-59
2021/11/02 13:13:59;;;;;;;5.05;1.15;;;;;;;;;;21003765;28;20052;-59
2021/11/02 13:24:11;;;;;;;3.15;1.10;;;;;;;;;;21003089;28;20049;-58
2021/11/02 13:34:15;;;;;;;4.45;1.25;;;;;;;;;;21002394;28;20377;-58
2021/11/02 13:44:19;;;;;;;3.85;1.30;;;;;;;;;;21001682;28;20080;-58
2021/11/02 13:54:21;;;;;;;3.78;1.38;;;;;;;;;;21000587;28;20550;-60
2021/11/02 14:04:24;;;;;;;5.65;1.30;;;;;;;;;;21015846;28;20101;-57
2021/11/02 14:14:33;;;;;;;2.90;1.02;;;;;;;;;;20998718;28;20048;-59
2021/11/02 14:24:45;;;;;;;3.75;1.65;;;;;;;;;;20997669;28;20075;-58
2021/11/02 14:34:48;;;;;;;3.40;1.50;;;;;;;;;;21013081;28;20056;-57
2021/11/02 14:44:51;;;;;;;5.75;1.55;;;;;;;;;;20996948;28;20548;-57
2021/11/02 14:54:54;;;;;;;5.22;2.22;;;;;;;;;;20995751;28;20048;-57
2021/11/02 15:04:58;;;;;;;3.95;1.55;;;;;;;;;;20996278;28;20459;-57
2021/11/02 15:15:02;;;;;;;3.85;1.52;;;;;;;;;;20994651;28;20097;-57
2021/11/02 15:25:07;;;;;;;4.28;1.83;;;;;;;;;;20994448;28;20048;-60
2021/11/02 15:35:11;;;;;;;4.72;1.88;;;;;;;;;;20994023;28;20049;-60
2021/11/02 15:45:19;;;;;;;5.33;2.50;;;;;;;;;;20994164;28;20409;-58
2021/11/02 15:55:22;;;;;;;3.72;1.65;;;;;;;;;;21008644;28;20067;-58
2021/11/02 16:05:25;;;;;;;4.55;1.50;;;;;;;;;;20993507;28;20048;-58
2021/11/02 16:15:28;;;;;;;6.00;1.88;;;;;;;;;;20992253;28;20094;-58
2021/11/02 16:25:33;;;;;;;6.47;1.43;;;;;;;;;;20992516;28;20048;-59
2021/11/02 16:35:36;;;;;;;6.13;1.60;;;;;;;;;;20992489;28;20056;-57
2021/11/02 16:45:38;;;;;;;5.25;1.50;;;;;;;;;;21002366;28;20048;-56
2021/11/02 16:55:41;;;;;;;5.85;1.55;;;;;;;;;;21005464;28;20171;-57
2021/11/02 17:05:43;;;;;;;7.32;2.00;;;;;;;;;;21005203;28;20072;-56
2021/11/02 17:15:44;;;;;;;6.25;1.92;;;;;;;;;;21002941;28;20128;-59
2021/11/02 17:25:46;;;;;;;5.10;2.55;;;;;;;;;;21002652;28;20045;-58
2021/11/02 17:35:48;;;;;;;3.75;1.77;;;;;;;;;;21002624;28;20049;-60
2021/11/02 17:45:51;;;;;;;4.53;1.83;;;;;;;;;;21001377;28;20048;-58
2021/11/02 17:55:53;;;;;;;3.28;1.40;;;;;;;;;;20999599;28;20060;-58
2021/11/02 18:05:58;;;;;;;5.03;2.08;;;;;;;;;;20999390;28;20135;-59
2021/11/02 18:16:01;;;;;;;7.30;1.83;;;;;;;;;;20998643;28;20053;-58
2021/11/02 18:26:03;;;;;;;9.35;1.95;;;;;;;;;;20997973;28;20053;-60
2021/11/02 18:36:05;;;;;;;5.07;2.10;;;;;;;;;;20997206;28;20063;-58
2021/11/02 18:46:11;;;;;;;6.60;3.08;;;;;;;;;;20997177;28;20382;-60
2021/11/02 18:56:13;;;;;;;5.90;2.65;;;;;;;;;;20995979;28;20052;-57
2021/11/02 19:06:14;;;;;;;2.47;1.77;;;;;;;;;;20994390;28;20048;-58
2021/11/02 19:16:17;;;;;;;4.90;1.75;;;;;;;;;;20994761;28;20052;-59
2021/11/02 19:26:19;;;;;;;3.42;1.50;;;;;;;;;;20994545;28;20176;-58
2021/11/02 19:36:23;;;;;;;5.82;2.15;;;;;;;;;;20994177;28;20056;-59
2021/11/02 19:46:24;;;;;;;2.57;1.33;;;;;;;;;;20993611;28;20044;-57
2021/11/02 19:56:26;;;;;;;5.55;2.10;;;;;;;;;;20993019;28;20052;-58
2021/11/02 20:06:31;;;;;;;3.15;1.42;;;;;;;;;;20994292;28;20048;-58
2021/11/02 20:16:33;;;;;;;7.82;1.75;;;;;;;;;;20998513;28;20048;-58
2021/11/02 20:26:35;;;;;;;7.80;2.65;;;;;;;;;;21007040;28;20048;-59
2021/11/02 20:36:39;;;;;;;2.72;1.60;;;;;;;;;;21007454;28;20109;-58
2021/11/02 20:46:43;;;;;;;4.20;1.88;;;;;;;;;;21006123;28;20619;-59
2021/11/02 20:56:45;;;;;;;4.00;1.15;;;;;;;;;;21020764;28;20488;-59
2021/11/02 21:06:48;;;;;;;3.88;1.55;;;;;;;;;;21005037;28;20041;-59
2021/11/02 21:16:50;;;;;;;2.00;1.20;;;;;;;;;;21003150;28;20048;-58
2021/11/02 21:26:52;;;;;;;3.97;1.40;;;;;;;;;;21000922;28;20049;-60
2021/11/02 21:36:54;;;;;;;3.53;1.60;;;;;;;;;;21002515;28;20088;-59
2021/11/02 21:47:18;;;;;;;4.38;1.45;;;;;;;;;;21002587;28;20052;-58
2021/11/02 21:57:23;;;;;;;2.92;1.13;;;;;;;;;;21000516;28;20143;-59
2021/11/02 22:07:25;;;;;;;4.88;1.23;;;;;;;;;;21014414;28;20106;-59
2021/11/02 22:17:27;;;;;;;5.63;1.30;;;;;;;;;;20999769;28;20110;-61
2021/11/02 22:27:31;;;;;;;4.60;1.75;;;;;;;;;;20998902;28;20044;-59
2021/11/02 22:37:33;;;;;;;3.22;1.17;;;;;;;;;;20998566;28;20052;-60
2021/11/02 22:47:35;;;;;;;3.55;1.27;;;;;;;;;;20997865;28;20067;-58
2021/11/02 22:57:37;;;;;;;4.50;1.83;;;;;;;;;;20996433;28;20190;-60
2021/11/02 23:07:39;;;;;;;4.35;1.60;;;;;;;;;;20996417;28;20045;-60
2021/11/02 23:17:41;;;;;;;2.38;1.00;;;;;;;;;;20996072;28;20163;-60
2021/11/02 23:27:44;;;;;;;4.03;1.60;;;;;;;;;;20995957;28;20044;-59
2021/11/02 23:37:46;;;;;;;4.30;1.45;;;;;;;;;;20995090;28;20049;-59
2021/11/02 23:47:48;;;;;;;2.17;1.08;;;;;;;;;;20994702;28;20507;-58
2021/11/02 23:57:50;;;;;;;1.70;0.90;;;;;;;;;;21010936;28;20055;-59
